Protected: Instructor Resources2018-04-07T02:57:02+00:00

This content is password protected. To view it please enter your password below:

Current METAR

KOGD 201853Z 00000KT 10SM CLR 04/00 A3003 RMK AO2 SLP170 T00390000